sensor_id;sensor_type;location;lat;lon;timestamp;P1;durP1;ratioP1;P2;durP2;ratioP2
79036;SDS011;68434;59.896;30.474;2023-07-29T00:02:12;6.32;;;2.85;;
79036;SDS011;68434;59.896;30.474;2023-07-29T00:04:40;4.97;;;2.92;;
79036;SDS011;68434;59.896;30.474;2023-07-29T00:07:09;5.80;;;2.80;;
79036;SDS011;68434;59.896;30.474;2023-07-29T00:09:36;4.03;;;2.70;;
79036;SDS011;68434;59.896;30.474;2023-07-29T00:12:04;5.15;;;2.85;;
79036;SDS011;68434;59.896;30.474;2023-07-29T00:14:32;6.45;;;3.28;;
79036;SDS011;68434;59.896;30.474;2023-07-29T00:16:59;5.60;;;2.75;;
79036;SDS011;68434;59.896;30.474;2023-07-29T00:19:27;4.82;;;2.97;;
79036;SDS011;68434;59.896;30.474;2023-07-29T00:21:55;3.97;;;2.55;;
79036;SDS011;68434;59.896;30.474;2023-07-29T00:24:24;5.13;;;3.05;;
79036;SDS011;68434;59.896;30.474;2023-07-29T00:26:52;5.25;;;3.30;;
79036;SDS011;68434;59.896;30.474;2023-07-29T00:29:20;6.32;;;3.35;;
79036;SDS011;68434;59.896;30.474;2023-07-29T00:31:51;5.03;;;3.28;;
79036;SDS011;68434;59.896;30.474;2023-07-29T00:34:19;4.97;;;3.00;;
79036;SDS011;68434;59.896;30.474;2023-07-29T00:36:47;6.07;;;3.05;;
79036;SDS011;68434;59.896;30.474;2023-07-29T00:39:15;5.05;;;3.33;;
79036;SDS011;68434;59.896;30.474;2023-07-29T00:41:44;7.90;;;3.50;;
79036;SDS011;68434;59.896;30.474;2023-07-29T00:44:11;4.85;;;3.10;;
79036;SDS011;68434;59.896;30.474;2023-07-29T00:46:39;7.72;;;3.47;;
79036;SDS011;68434;59.896;30.474;2023-07-29T00:49:08;7.25;;;3.20;;
79036;SDS011;68434;59.896;30.474;2023-07-29T00:51:36;6.55;;;2.80;;
79036;SDS011;68434;59.896;30.474;2023-07-29T00:54:03;7.10;;;2.80;;
79036;SDS011;68434;59.896;30.474;2023-07-29T00:56:31;8.40;;;3.20;;
79036;SDS011;68434;59.896;30.474;2023-07-29T00:59:01;4.63;;;3.15;;
79036;SDS011;68434;59.896;30.474;2023-07-29T01:01:30;7.95;;;3.30;;
79036;SDS011;68434;59.896;30.474;2023-07-29T01:03:58;5.72;;;3.00;;
79036;SDS011;68434;59.896;30.474;2023-07-29T01:06:27;7.00;;;2.72;;
79036;SDS011;68434;59.896;30.474;2023-07-29T01:09:04;6.25;;;3.10;;
79036;SDS011;68434;59.896;30.474;2023-07-29T01:11:38;5.15;;;2.80;;
79036;SDS011;68434;59.896;30.474;2023-07-29T01:14:18;8.93;;;3.03;;
79036;SDS011;68434;59.896;30.474;2023-07-29T01:16:57;6.75;;;3.50;;
79036;SDS011;68434;59.896;30.474;2023-07-29T01:19:37;6.68;;;3.85;;
79036;SDS011;68434;59.896;30.474;2023-07-29T01:22:11;4.00;;;2.63;;
79036;SDS011;68434;59.896;30.474;2023-07-29T01:24:42;5.88;;;3.40;;
79036;SDS011;68434;59.896;30.474;2023-07-29T01:27:09;4.93;;;2.88;;
79036;SDS011;68434;59.896;30.474;2023-07-29T01:29:37;7.88;;;2.90;;
79036;SDS011;68434;59.896;30.474;2023-07-29T01:32:06;5.90;;;2.75;;
79036;SDS011;68434;59.896;30.474;2023-07-29T01:34:39;5.68;;;2.83;;
79036;SDS011;68434;59.896;30.474;2023-07-29T01:37:12;7.57;;;2.75;;
79036;SDS011;68434;59.896;30.474;2023-07-29T01:39:48;4.55;;;2.28;;
79036;SDS011;68434;59.896;30.474;2023-07-29T01:42:17;6.20;;;2.50;;
79036;SDS011;68434;59.896;30.474;2023-07-29T01:44:45;4.50;;;2.35;;
79036;SDS011;68434;59.896;30.474;2023-07-29T01:47:13;5.50;;;2.53;;
79036;SDS011;68434;59.896;30.474;2023-07-29T01:49:40;5.10;;;2.88;;
79036;SDS011;68434;59.896;30.474;2023-07-29T01:52:08;4.15;;;2.75;;
79036;SDS011;68434;59.896;30.474;2023-07-29T01:54:36;5.53;;;2.72;;
79036;SDS011;68434;59.896;30.474;2023-07-29T01:57:05;5.85;;;2.88;;
79036;SDS011;68434;59.896;30.474;2023-07-29T01:59:33;4.88;;;2.67;;
79036;SDS011;68434;59.896;30.474;2023-07-29T02:02:00;5.68;;;2.67;;
79036;SDS011;68434;59.896;30.474;2023-07-29T02:04:28;6.03;;;3.38;;
79036;SDS011;68434;59.896;30.474;2023-07-29T02:06:56;5.95;;;3.03;;
79036;SDS011;68434;59.896;30.474;2023-07-29T02:09:23;6.30;;;2.90;;
79036;SDS011;68434;59.896;30.474;2023-07-29T02:11:51;4.40;;;2.67;;
79036;SDS011;68434;59.896;30.474;2023-07-29T02:14:20;6.18;;;3.25;;
79036;SDS011;68434;59.896;30.474;2023-07-29T02:16:49;4.97;;;2.80;;
79036;SDS011;68434;59.896;30.474;2023-07-29T02:19:36;5.10;;;2.72;;
79036;SDS011;68434;59.896;30.474;2023-07-29T02:22:04;7.00;;;2.72;;
79036;SDS011;68434;59.896;30.474;2023-07-29T02:24:32;6.00;;;2.92;;
79036;SDS011;68434;59.896;30.474;2023-07-29T02:27:00;6.68;;;2.85;;
79036;SDS011;68434;59.896;30.474;2023-07-29T02:29:28;5.05;;;2.70;;
79036;SDS011;68434;59.896;30.474;2023-07-29T02:31:56;4.30;;;2.60;;
79036;SDS011;68434;59.896;30.474;2023-07-29T02:34:23;5.82;;;2.60;;
79036;SDS011;68434;59.896;30.474;2023-07-29T02:36:52;5.43;;;2.45;;
79036;SDS011;68434;59.896;30.474;2023-07-29T02:39:19;5.13;;;2.55;;
79036;SDS011;68434;59.896;30.474;2023-07-29T02:41:47;4.90;;;2.50;;
79036;SDS011;68434;59.896;30.474;2023-07-29T02:44:15;5.05;;;2.60;;
79036;SDS011;68434;59.896;30.474;2023-07-29T02:46:44;3.88;;;2.33;;
79036;SDS011;68434;59.896;30.474;2023-07-29T02:49:12;4.38;;;2.55;;
79036;SDS011;68434;59.896;30.474;2023-07-29T02:51:39;5.05;;;2.60;;
79036;SDS011;68434;59.896;30.474;2023-07-29T02:54:07;5.28;;;2.55;;
79036;SDS011;68434;59.896;30.474;2023-07-29T02:56:35;4.75;;;2.58;;
79036;SDS011;68434;59.896;30.474;2023-07-29T02:59:02;5.78;;;2.67;;
79036;SDS011;68434;59.896;30.474;2023-07-29T03:03:59;4.97;;;2.47;;
79036;SDS011;68434;59.896;30.474;2023-07-29T03:06:27;8.25;;;3.22;;
79036;SDS011;68434;59.896;30.474;2023-07-29T03:08:54;6.70;;;3.40;;
79036;SDS011;68434;59.896;30.474;2023-07-29T03:11:22;5.18;;;2.50;;
79036;SDS011;68434;59.896;30.474;2023-07-29T03:13:49;6.88;;;2.65;;
79036;SDS011;68434;59.896;30.474;2023-07-29T03:16:17;5.82;;;2.90;;
79036;SDS011;68434;59.896;30.474;2023-07-29T03:18:51;6.53;;;2.72;;
79036;SDS011;68434;59.896;30.474;2023-07-29T03:21:19;7.85;;;2.40;;
79036;SDS011;68434;59.896;30.474;2023-07-29T03:23:47;5.75;;;2.85;;
79036;SDS011;68434;59.896;30.474;2023-07-29T03:26:15;5.43;;;2.80;;
79036;SDS011;68434;59.896;30.474;2023-07-29T03:28:42;6.15;;;2.55;;
79036;SDS011;68434;59.896;30.474;2023-07-29T03:31:10;7.43;;;3.08;;
79036;SDS011;68434;59.896;30.474;2023-07-29T03:33:38;7.03;;;2.78;;
79036;SDS011;68434;59.896;30.474;2023-07-29T03:36:06;7.65;;;2.55;;
79036;SDS011;68434;59.896;30.474;2023-07-29T03:38:35;5.82;;;2.70;;
79036;SDS011;68434;59.896;30.474;2023-07-29T03:41:06;5.78;;;3.13;;
79036;SDS011;68434;59.896;30.474;2023-07-29T03:48:29;4.80;;;3.03;;
79036;SDS011;68434;59.896;30.474;2023-07-29T03:50:57;4.82;;;2.70;;
79036;SDS011;68434;59.896;30.474;2023-07-29T03:53:24;6.15;;;2.78;;
79036;SDS011;68434;59.896;30.474;2023-07-29T03:55:53;5.15;;;3.35;;
79036;SDS011;68434;59.896;30.474;2023-07-29T03:58:22;6.40;;;3.25;;
79036;SDS011;68434;59.896;30.474;2023-07-29T04:00:50;6.70;;;3.40;;
79036;SDS011;68434;59.896;30.474;2023-07-29T04:03:17;5.70;;;3.20;;
79036;SDS011;68434;59.896;30.474;2023-07-29T04:05:46;7.32;;;3.45;;
79036;SDS011;68434;59.896;30.474;2023-07-29T04:08:13;7.30;;;3.75;;
79036;SDS011;68434;59.896;30.474;2023-07-29T04:10:41;5.65;;;3.40;;
79036;SDS011;68434;59.896;30.474;2023-07-29T04:13:10;9.07;;;3.53;;
79036;SDS011;68434;59.896;30.474;2023-07-29T04:15:38;7.22;;;3.35;;
79036;SDS011;68434;59.896;30.474;2023-07-29T04:18:05;4.75;;;2.88;;
79036;SDS011;68434;59.896;30.474;2023-07-29T04:20:33;5.70;;;2.78;;
79036;SDS011;68434;59.896;30.474;2023-07-29T04:23:01;8.32;;;4.03;;
79036;SDS011;68434;59.896;30.474;2023-07-29T04:25:28;7.07;;;3.38;;
79036;SDS011;68434;59.896;30.474;2023-07-29T04:27:56;6.32;;;3.60;;
79036;SDS011;68434;59.896;30.474;2023-07-29T04:30:25;7.20;;;3.58;;
79036;SDS011;68434;59.896;30.474;2023-07-29T04:32:53;6.43;;;2.90;;
79036;SDS011;68434;59.896;30.474;2023-07-29T04:35:21;6.22;;;2.75;;
79036;SDS011;68434;59.896;30.474;2023-07-29T04:37:48;4.25;;;2.90;;
79036;SDS011;68434;59.896;30.474;2023-07-29T04:40:16;4.20;;;2.78;;
79036;SDS011;68434;59.896;30.474;2023-07-29T04:42:43;5.50;;;3.15;;
79036;SDS011;68434;59.896;30.474;2023-07-29T04:45:11;6.85;;;2.90;;
79036;SDS011;68434;59.896;30.474;2023-07-29T04:47:40;5.47;;;2.50;;
79036;SDS011;68434;59.896;30.474;2023-07-29T04:50:08;5.03;;;2.70;;
79036;SDS011;68434;59.896;30.474;2023-07-29T04:52:36;4.57;;;2.45;;
79036;SDS011;68434;59.896;30.474;2023-07-29T04:55:04;5.88;;;2.90;;
79036;SDS011;68434;59.896;30.474;2023-07-29T04:57:32;5.25;;;2.97;;
79036;SDS011;68434;59.896;30.474;2023-07-29T05:00:00;4.60;;;2.63;;
79036;SDS011;68434;59.896;30.474;2023-07-29T05:02:31;4.35;;;2.78;;
79036;SDS011;68434;59.896;30.474;2023-07-29T05:05:00;6.65;;;3.00;;
79036;SDS011;68434;59.896;30.474;2023-07-29T05:07:30;4.30;;;2.58;;
79036;SDS011;68434;59.896;30.474;2023-07-29T05:09:57;4.85;;;2.47;;
79036;SDS011;68434;59.896;30.474;2023-07-29T05:12:25;6.70;;;3.20;;
79036;SDS011;68434;59.896;30.474;2023-07-29T05:14:53;7.43;;;2.83;;
79036;SDS011;68434;59.896;30.474;2023-07-29T05:17:21;5.53;;;3.03;;
79036;SDS011;68434;59.896;30.474;2023-07-29T05:19:48;3.75;;;2.47;;
79036;SDS011;68434;59.896;30.474;2023-07-29T05:22:17;6.68;;;2.70;;
79036;SDS011;68434;59.896;30.474;2023-07-29T05:24:45;4.57;;;2.95;;
79036;SDS011;68434;59.896;30.474;2023-07-29T05:27:12;5.45;;;2.40;;
79036;SDS011;68434;59.896;30.474;2023-07-29T05:29:40;5.85;;;2.67;;
79036;SDS011;68434;59.896;30.474;2023-07-29T05:32:07;5.68;;;3.00;;
79036;SDS011;68434;59.896;30.474;2023-07-29T05:34:35;5.18;;;2.28;;
79036;SDS011;68434;59.896;30.474;2023-07-29T05:37:03;4.68;;;2.90;;
79036;SDS011;68434;59.896;30.474;2023-07-29T05:39:33;5.13;;;3.05;;
79036;SDS011;68434;59.896;30.474;2023-07-29T05:42:00;4.43;;;2.80;;
79036;SDS011;68434;59.896;30.474;2023-07-29T05:46:57;6.93;;;3.40;;
79036;SDS011;68434;59.896;30.474;2023-07-29T05:49:24;4.50;;;2.88;;
79036;SDS011;68434;59.896;30.474;2023-07-29T05:51:52;5.47;;;2.35;;
79036;SDS011;68434;59.896;30.474;2023-07-29T05:54:19;4.30;;;2.80;;
79036;SDS011;68434;59.896;30.474;2023-07-29T05:56:48;4.03;;;2.60;;
79036;SDS011;68434;59.896;30.474;2023-07-29T05:59:16;10.05;;;2.65;;
79036;SDS011;68434;59.896;30.474;2023-07-29T06:01:43;5.38;;;2.53;;
79036;SDS011;68434;59.896;30.474;2023-07-29T06:04:12;3.85;;;2.42;;
79036;SDS011;68434;59.896;30.474;2023-07-29T06:06:40;4.93;;;2.65;;
79036;SDS011;68434;59.896;30.474;2023-07-29T06:09:07;4.63;;;2.60;;
79036;SDS011;68434;59.896;30.474;2023-07-29T06:11:35;6.22;;;2.80;;
79036;SDS011;68434;59.896;30.474;2023-07-29T06:14:04;3.67;;;2.45;;
79036;SDS011;68434;59.896;30.474;2023-07-29T06:16:31;4.32;;;2.72;;
79036;SDS011;68434;59.896;30.474;2023-07-29T06:18:59;3.83;;;2.47;;
79036;SDS011;68434;59.896;30.474;2023-07-29T06:21:26;3.55;;;2.35;;
79036;SDS011;68434;59.896;30.474;2023-07-29T06:23:54;3.45;;;2.35;;
79036;SDS011;68434;59.896;30.474;2023-07-29T06:26:22;4.95;;;2.42;;
79036;SDS011;68434;59.896;30.474;2023-07-29T06:28:49;3.88;;;2.25;;
79036;SDS011;68434;59.896;30.474;2023-07-29T06:31:18;4.72;;;2.20;;
79036;SDS011;68434;59.896;30.474;2023-07-29T06:33:46;3.78;;;2.50;;
79036;SDS011;68434;59.896;30.474;2023-07-29T06:36:14;3.28;;;2.10;;
79036;SDS011;68434;59.896;30.474;2023-07-29T06:38:43;3.10;;;2.00;;
79036;SDS011;68434;59.896;30.474;2023-07-29T06:41:11;4.50;;;2.15;;
79036;SDS011;68434;59.896;30.474;2023-07-29T06:43:38;3.22;;;2.00;;
79036;SDS011;68434;59.896;30.474;2023-07-29T06:46:06;4.18;;;2.20;;
79036;SDS011;68434;59.896;30.474;2023-07-29T06:48:36;3.20;;;2.17;;
79036;SDS011;68434;59.896;30.474;2023-07-29T06:51:03;3.38;;;1.90;;
79036;SDS011;68434;59.896;30.474;2023-07-29T06:53:31;3.63;;;2.05;;
79036;SDS011;68434;59.896;30.474;2023-07-29T06:55:58;3.70;;;2.00;;
79036;SDS011;68434;59.896;30.474;2023-07-29T06:58:26;3.72;;;2.22;;
79036;SDS011;68434;59.896;30.474;2023-07-29T07:00:54;4.22;;;1.92;;
79036;SDS011;68434;59.896;30.474;2023-07-29T07:03:22;2.97;;;1.92;;
79036;SDS011;68434;59.896;30.474;2023-07-29T07:05:50;3.10;;;2.15;;
79036;SDS011;68434;59.896;30.474;2023-07-29T07:08:18;4.57;;;2.03;;
79036;SDS011;68434;59.896;30.474;2023-07-29T07:10:46;3.17;;;1.90;;
79036;SDS011;68434;59.896;30.474;2023-07-29T07:13:16;3.45;;;2.20;;
79036;SDS011;68434;59.896;30.474;2023-07-29T07:15:44;3.67;;;2.00;;
79036;SDS011;68434;59.896;30.474;2023-07-29T07:18:12;5.65;;;2.45;;
79036;SDS011;68434;59.896;30.474;2023-07-29T07:20:39;3.65;;;2.20;;
79036;SDS011;68434;59.896;30.474;2023-07-29T07:23:08;4.20;;;2.10;;
79036;SDS011;68434;59.896;30.474;2023-07-29T07:25:37;4.03;;;2.30;;
79036;SDS011;68434;59.896;30.474;2023-07-29T07:28:05;4.60;;;2.35;;
79036;SDS011;68434;59.896;30.474;2023-07-29T07:30:32;3.28;;;2.15;;
79036;SDS011;68434;59.896;30.474;2023-07-29T07:33:00;3.58;;;2.20;;
79036;SDS011;68434;59.896;30.474;2023-07-29T07:35:28;5.82;;;2.40;;
79036;SDS011;68434;59.896;30.474;2023-07-29T07:37:56;4.38;;;2.30;;
79036;SDS011;68434;59.896;30.474;2023-07-29T07:40:26;3.95;;;2.20;;
79036;SDS011;68434;59.896;30.474;2023-07-29T07:42:54;4.28;;;2.42;;
79036;SDS011;68434;59.896;30.474;2023-07-29T07:45:22;3.40;;;2.20;;
79036;SDS011;68434;59.896;30.474;2023-07-29T07:47:51;7.10;;;2.35;;
79036;SDS011;68434;59.896;30.474;2023-07-29T07:50:19;3.95;;;2.55;;
79036;SDS011;68434;59.896;30.474;2023-07-29T07:52:47;4.97;;;2.92;;
79036;SDS011;68434;59.896;30.474;2023-07-29T07:55:14;4.40;;;2.50;;
79036;SDS011;68434;59.896;30.474;2023-07-29T07:57:44;4.50;;;2.63;;
79036;SDS011;68434;59.896;30.474;2023-07-29T08:00:12;3.60;;;2.40;;
79036;SDS011;68434;59.896;30.474;2023-07-29T08:02:43;7.05;;;2.70;;
79036;SDS011;68434;59.896;30.474;2023-07-29T08:05:11;4.45;;;2.42;;
79036;SDS011;68434;59.896;30.474;2023-07-29T08:07:39;3.78;;;2.42;;
79036;SDS011;68434;59.896;30.474;2023-07-29T08:10:07;4.60;;;2.58;;
79036;SDS011;68434;59.896;30.474;2023-07-29T08:12:35;4.32;;;2.75;;
79036;SDS011;68434;59.896;30.474;2023-07-29T08:15:04;3.75;;;2.25;;
79036;SDS011;68434;59.896;30.474;2023-07-29T08:17:32;4.57;;;2.75;;
79036;SDS011;68434;59.896;30.474;2023-07-29T08:20:00;4.95;;;2.45;;
79036;SDS011;68434;59.896;30.474;2023-07-29T08:22:30;5.28;;;2.50;;
79036;SDS011;68434;59.896;30.474;2023-07-29T08:27:26;5.20;;;2.88;;
79036;SDS011;68434;59.896;30.474;2023-07-29T08:29:53;5.40;;;2.60;;
79036;SDS011;68434;59.896;30.474;2023-07-29T08:32:22;4.45;;;2.40;;
79036;SDS011;68434;59.896;30.474;2023-07-29T08:34:50;4.13;;;2.33;;
79036;SDS011;68434;59.896;30.474;2023-07-29T08:37:17;4.53;;;2.33;;
79036;SDS011;68434;59.896;30.474;2023-07-29T08:39:45;3.65;;;2.60;;
79036;SDS011;68434;59.896;30.474;2023-07-29T08:42:13;6.30;;;2.63;;
79036;SDS011;68434;59.896;30.474;2023-07-29T08:44:45;3.20;;;2.20;;
79036;SDS011;68434;59.896;30.474;2023-07-29T08:47:16;3.40;;;2.35;;
79036;SDS011;68434;59.896;30.474;2023-07-29T08:49:47;5.88;;;2.40;;
79036;SDS011;68434;59.896;30.474;2023-07-29T08:52:17;3.40;;;2.20;;
79036;SDS011;68434;59.896;30.474;2023-07-29T08:54:45;4.07;;;2.40;;
79036;SDS011;68434;59.896;30.474;2023-07-29T08:57:14;3.10;;;1.92;;
79036;SDS011;68434;59.896;30.474;2023-07-29T08:59:42;3.45;;;2.30;;
79036;SDS011;68434;59.896;30.474;2023-07-29T09:02:09;5.05;;;2.17;;
79036;SDS011;68434;59.896;30.474;2023-07-29T09:04:37;3.47;;;2.38;;
79036;SDS011;68434;59.896;30.474;2023-07-29T09:07:06;3.80;;;2.30;;
79036;SDS011;68434;59.896;30.474;2023-07-29T09:09:35;3.65;;;2.10;;
79036;SDS011;68434;59.896;30.474;2023-07-29T09:12:02;3.72;;;2.30;;
79036;SDS011;68434;59.896;30.474;2023-07-29T09:14:31;3.30;;;2.35;;
79036;SDS011;68434;59.896;30.474;2023-07-29T09:16:59;3.22;;;2.10;;
79036;SDS011;68434;59.896;30.474;2023-07-29T09:19:27;2.63;;;1.67;;
79036;SDS011;68434;59.896;30.474;2023-07-29T09:21:55;3.40;;;1.83;;
79036;SDS011;68434;59.896;30.474;2023-07-29T09:24:24;3.05;;;1.80;;
79036;SDS011;68434;59.896;30.474;2023-07-29T09:26:55;3.95;;;2.03;;
79036;SDS011;68434;59.896;30.474;2023-07-29T09:29:23;3.45;;;2.13;;
79036;SDS011;68434;59.896;30.474;2023-07-29T09:31:50;2.72;;;1.95;;
79036;SDS011;68434;59.896;30.474;2023-07-29T09:34:18;3.22;;;2.20;;
79036;SDS011;68434;59.896;30.474;2023-07-29T09:39:17;2.70;;;1.85;;
79036;SDS011;68434;59.896;30.474;2023-07-29T09:41:48;4.03;;;2.30;;
79036;SDS011;68434;59.896;30.474;2023-07-29T09:44:18;3.50;;;2.20;;
79036;SDS011;68434;59.896;30.474;2023-07-29T09:46:45;3.33;;;2.38;;
79036;SDS011;68434;59.896;30.474;2023-07-29T09:49:15;3.90;;;2.13;;
79036;SDS011;68434;59.896;30.474;2023-07-29T09:51:42;4.03;;;2.30;;
79036;SDS011;68434;59.896;30.474;2023-07-29T09:54:10;3.17;;;2.13;;
79036;SDS011;68434;59.896;30.474;2023-07-29T09:56:39;3.80;;;2.40;;
79036;SDS011;68434;59.896;30.474;2023-07-29T09:59:09;3.42;;;2.33;;
79036;SDS011;68434;59.896;30.474;2023-07-29T10:01:37;4.18;;;2.72;;
79036;SDS011;68434;59.896;30.474;2023-07-29T10:04:06;4.20;;;2.63;;
79036;SDS011;68434;59.896;30.474;2023-07-29T10:06:34;3.92;;;2.40;;
79036;SDS011;68434;59.896;30.474;2023-07-29T10:09:04;3.88;;;2.50;;
79036;SDS011;68434;59.896;30.474;2023-07-29T10:11:33;3.25;;;2.25;;
79036;SDS011;68434;59.896;30.474;2023-07-29T10:14:02;4.63;;;2.47;;
79036;SDS011;68434;59.896;30.474;2023-07-29T10:18:59;3.72;;;2.55;;
79036;SDS011;68434;59.896;30.474;2023-07-29T10:21:27;4.55;;;3.05;;
79036;SDS011;68434;59.896;30.474;2023-07-29T10:23:57;4.72;;;2.97;;
79036;SDS011;68434;59.896;30.474;2023-07-29T10:26:29;5.13;;;2.85;;
79036;SDS011;68434;59.896;30.474;2023-07-29T10:29:00;5.80;;;3.08;;
79036;SDS011;68434;59.896;30.474;2023-07-29T10:31:33;3.92;;;2.53;;
79036;SDS011;68434;59.896;30.474;2023-07-29T10:34:02;4.30;;;2.50;;
79036;SDS011;68434;59.896;30.474;2023-07-29T10:36:30;4.40;;;2.78;;
79036;SDS011;68434;59.896;30.474;2023-07-29T10:38:58;4.15;;;2.63;;
79036;SDS011;68434;59.896;30.474;2023-07-29T10:47:17;4.45;;;2.17;;
79036;SDS011;68434;59.896;30.474;2023-07-29T10:49:46;5.03;;;2.40;;
79036;SDS011;68434;59.896;30.474;2023-07-29T10:52:16;4.60;;;2.85;;
79036;SDS011;68434;59.896;30.474;2023-07-29T10:54:56;5.57;;;3.15;;
79036;SDS011;68434;59.896;30.474;2023-07-29T10:57:31;4.78;;;2.80;;
79036;SDS011;68434;59.896;30.474;2023-07-29T11:02:31;6.28;;;2.22;;
79036;SDS011;68434;59.896;30.474;2023-07-29T11:05:00;6.00;;;2.50;;
79036;SDS011;68434;59.896;30.474;2023-07-29T11:07:42;8.50;;;2.45;;
79036;SDS011;68434;59.896;30.474;2023-07-29T11:10:11;4.68;;;2.20;;
79036;SDS011;68434;59.896;30.474;2023-07-29T11:12:40;3.53;;;2.33;;
79036;SDS011;68434;59.896;30.474;2023-07-29T11:15:12;4.88;;;2.30;;
79036;SDS011;68434;59.896;30.474;2023-07-29T11:17:44;4.28;;;2.05;;
79036;SDS011;68434;59.896;30.474;2023-07-29T11:20:13;3.65;;;2.20;;
79036;SDS011;68434;59.896;30.474;2023-07-29T11:22:42;4.78;;;2.28;;
79036;SDS011;68434;59.896;30.474;2023-07-29T11:25:10;5.25;;;2.28;;
79036;SDS011;68434;59.896;30.474;2023-07-29T11:27:39;8.75;;;2.60;;
79036;SDS011;68434;59.896;30.474;2023-07-29T11:30:08;3.97;;;2.40;;
79036;SDS011;68434;59.896;30.474;2023-07-29T11:32:37;4.03;;;2.30;;
79036;SDS011;68434;59.896;30.474;2023-07-29T11:35:07;3.58;;;2.22;;
79036;SDS011;68434;59.896;30.474;2023-07-29T11:37:37;4.07;;;2.30;;
79036;SDS011;68434;59.896;30.474;2023-07-29T11:40:05;3.30;;;1.88;;
79036;SDS011;68434;59.896;30.474;2023-07-29T11:42:36;5.63;;;2.30;;
79036;SDS011;68434;59.896;30.474;2023-07-29T11:45:05;4.30;;;2.50;;
79036;SDS011;68434;59.896;30.474;2023-07-29T11:47:34;3.40;;;2.30;;
79036;SDS011;68434;59.896;30.474;2023-07-29T11:50:03;3.40;;;2.17;;
79036;SDS011;68434;59.896;30.474;2023-07-29T11:52:34;4.15;;;2.72;;
79036;SDS011;68434;59.896;30.474;2023-07-29T11:55:02;4.13;;;2.80;;
79036;SDS011;68434;59.896;30.474;2023-07-29T11:57:33;4.68;;;2.95;;
79036;SDS011;68434;59.896;30.474;2023-07-29T12:00:03;4.30;;;3.00;;
79036;SDS011;68434;59.896;30.474;2023-07-29T12:02:38;4.10;;;2.60;;
79036;SDS011;68434;59.896;30.474;2023-07-29T12:05:07;4.55;;;2.60;;
79036;SDS011;68434;59.896;30.474;2023-07-29T12:07:39;4.93;;;3.38;;
79036;SDS011;68434;59.896;30.474;2023-07-29T12:10:11;4.20;;;2.83;;
79036;SDS011;68434;59.896;30.474;2023-07-29T12:12:42;5.18;;;3.03;;
79036;SDS011;68434;59.896;30.474;2023-07-29T12:15:12;4.43;;;3.15;;
79036;SDS011;68434;59.896;30.474;2023-07-29T12:17:40;4.00;;;2.78;;
79036;SDS011;68434;59.896;30.474;2023-07-29T12:20:08;6.95;;;5.07;;
79036;SDS011;68434;59.896;30.474;2023-07-29T12:22:38;6.65;;;4.68;;
79036;SDS011;68434;59.896;30.474;2023-07-29T12:25:06;4.82;;;3.88;;
79036;SDS011;68434;59.896;30.474;2023-07-29T12:27:38;4.80;;;3.67;;
79036;SDS011;68434;59.896;30.474;2023-07-29T12:30:05;5.03;;;3.70;;
79036;SDS011;68434;59.896;30.474;2023-07-29T12:32:42;5.03;;;3.30;;
79036;SDS011;68434;59.896;30.474;2023-07-29T12:35:12;4.07;;;2.90;;
79036;SDS011;68434;59.896;30.474;2023-07-29T12:37:41;5.93;;;3.53;;
79036;SDS011;68434;59.896;30.474;2023-07-29T12:40:20;4.72;;;2.45;;
79036;SDS011;68434;59.896;30.474;2023-07-29T12:42:49;4.00;;;2.78;;
79036;SDS011;68434;59.896;30.474;2023-07-29T12:45:18;4.57;;;2.60;;
79036;SDS011;68434;59.896;30.474;2023-07-29T12:47:48;3.88;;;2.67;;
79036;SDS011;68434;59.896;30.474;2023-07-29T12:50:16;3.97;;;2.50;;
79036;SDS011;68434;59.896;30.474;2023-07-29T12:52:45;5.80;;;3.20;;
79036;SDS011;68434;59.896;30.474;2023-07-29T12:55:13;4.57;;;2.75;;
79036;SDS011;68434;59.896;30.474;2023-07-29T12:57:41;4.05;;;2.65;;
79036;SDS011;68434;59.896;30.474;2023-07-29T13:00:10;4.07;;;2.80;;
79036;SDS011;68434;59.896;30.474;2023-07-29T13:02:38;3.90;;;2.72;;
79036;SDS011;68434;59.896;30.474;2023-07-29T13:05:08;3.97;;;2.60;;
79036;SDS011;68434;59.896;30.474;2023-07-29T13:07:38;4.50;;;2.53;;
79036;SDS011;68434;59.896;30.474;2023-07-29T13:10:08;4.45;;;2.70;;
79036;SDS011;68434;59.896;30.474;2023-07-29T13:12:36;3.50;;;2.40;;
79036;SDS011;68434;59.896;30.474;2023-07-29T13:15:04;6.32;;;3.83;;
79036;SDS011;68434;59.896;30.474;2023-07-29T13:17:34;4.15;;;3.00;;
79036;SDS011;68434;59.896;30.474;2023-07-29T13:20:03;4.13;;;2.67;;
79036;SDS011;68434;59.896;30.474;2023-07-29T13:22:32;4.22;;;2.67;;
79036;SDS011;68434;59.896;30.474;2023-07-29T13:24:59;4.07;;;2.50;;
79036;SDS011;68434;59.896;30.474;2023-07-29T13:27:29;3.45;;;2.47;;
79036;SDS011;68434;59.896;30.474;2023-07-29T13:29:56;3.92;;;2.53;;
79036;SDS011;68434;59.896;30.474;2023-07-29T13:32:24;3.90;;;2.60;;
79036;SDS011;68434;59.896;30.474;2023-07-29T13:34:52;5.00;;;2.97;;
79036;SDS011;68434;59.896;30.474;2023-07-29T13:37:19;3.50;;;2.67;;
79036;SDS011;68434;59.896;30.474;2023-07-29T13:39:47;3.83;;;2.28;;
79036;SDS011;68434;59.896;30.474;2023-07-29T13:42:14;5.63;;;2.72;;
79036;SDS011;68434;59.896;30.474;2023-07-29T13:44:43;3.53;;;2.35;;
79036;SDS011;68434;59.896;30.474;2023-07-29T13:47:11;3.75;;;2.60;;
79036;SDS011;68434;59.896;30.474;2023-07-29T13:49:38;4.10;;;2.45;;
79036;SDS011;68434;59.896;30.474;2023-07-29T13:52:06;4.20;;;2.63;;
79036;SDS011;68434;59.896;30.474;2023-07-29T13:54:34;3.95;;;2.55;;
79036;SDS011;68434;59.896;30.474;2023-07-29T13:57:02;3.55;;;2.35;;
79036;SDS011;68434;59.896;30.474;2023-07-29T13:59:29;4.40;;;3.63;;
79036;SDS011;68434;59.896;30.474;2023-07-29T14:01:58;3.88;;;2.90;;
79036;SDS011;68434;59.896;30.474;2023-07-29T14:04:26;4.57;;;2.80;;
79036;SDS011;68434;59.896;30.474;2023-07-29T14:06:55;4.00;;;2.60;;
79036;SDS011;68434;59.896;30.474;2023-07-29T14:09:23;4.45;;;2.97;;
79036;SDS011;68434;59.896;30.474;2023-07-29T14:11:50;5.43;;;3.58;;
79036;SDS011;68434;59.896;30.474;2023-07-29T14:14:19;4.00;;;2.60;;
79036;SDS011;68434;59.896;30.474;2023-07-29T14:16:46;3.35;;;2.38;;
79036;SDS011;68434;59.896;30.474;2023-07-29T14:19:16;3.58;;;2.45;;
79036;SDS011;68434;59.896;30.474;2023-07-29T14:21:44;4.10;;;3.22;;
79036;SDS011;68434;59.896;30.474;2023-07-29T14:24:11;5.55;;;3.25;;
79036;SDS011;68434;59.896;30.474;2023-07-29T14:26:39;5.00;;;3.30;;
79036;SDS011;68434;59.896;30.474;2023-07-29T14:29:07;6.55;;;4.03;;
79036;SDS011;68434;59.896;30.474;2023-07-29T14:31:34;4.72;;;3.22;;
79036;SDS011;68434;59.896;30.474;2023-07-29T14:34:02;5.15;;;3.45;;
79036;SDS011;68434;59.896;30.474;2023-07-29T14:36:34;4.82;;;3.10;;
79036;SDS011;68434;59.896;30.474;2023-07-29T14:39:02;4.13;;;3.00;;
79036;SDS011;68434;59.896;30.474;2023-07-29T14:41:29;8.68;;;3.53;;
79036;SDS011;68434;59.896;30.474;2023-07-29T14:43:57;5.13;;;3.63;;
79036;SDS011;68434;59.896;30.474;2023-07-29T14:46:25;5.47;;;3.05;;
79036;SDS011;68434;59.896;30.474;2023-07-29T14:48:55;5.80;;;2.97;;
79036;SDS011;68434;59.896;30.474;2023-07-29T14:51:22;4.50;;;2.60;;
79036;SDS011;68434;59.896;30.474;2023-07-29T14:53:51;4.10;;;2.63;;
79036;SDS011;68434;59.896;30.474;2023-07-29T14:56:19;3.72;;;2.30;;
79036;SDS011;68434;59.896;30.474;2023-07-29T14:58:46;4.97;;;2.50;;
79036;SDS011;68434;59.896;30.474;2023-07-29T15:01:16;4.40;;;2.30;;
79036;SDS011;68434;59.896;30.474;2023-07-29T15:03:44;2.83;;;1.95;;
79036;SDS011;68434;59.896;30.474;2023-07-29T15:06:11;3.85;;;2.60;;
79036;SDS011;68434;59.896;30.474;2023-07-29T15:08:39;5.80;;;4.18;;